SHT6C EGLL-EGPF
Flight info
| Callsign | SHT6C |
|---|---|
| Flight time | 0h 55m |
| Altitude | 32000 |
| Route | ULTIB1J ULTIB T420 TNT UN57 POL UN601 RIBEL DCT ASLIB ASLIB1G |
| Aircraft | A20N/M-SDE2E3FGHIRWXY/LB1 |
Departure
| Time | 2026-05-06 08:42 |
|---|---|
| Airport | London Heathrow Airport (EGLL) |
Arrival
| Time | 2026-05-06 09:37 |
|---|---|
| Airport | Glasgow Airport (EGPF) |
| Time | Latitude | Longitude | Altitude | Speed | Heading |
|---|---|---|---|---|---|
| 2026-05-06 08:15 | 51.46929 | -0.48862 | 88 ft | 0 kts | 359° |
| 2026-05-06 08:34 | 51.46914 | -0.48861 | 87 ft | 4 kts | 359° |
| 2026-05-06 08:35 | 51.46888 | -0.48861 | 84 ft | 4 kts | 359° |
| 2026-05-06 08:35 | 51.46863 | -0.48861 | 84 ft | 0 kts | 359° |
| 2026-05-06 08:39 | 51.46864 | -0.48861 | 84 ft | 1 kts | 0° |
| 2026-05-06 08:39 | 51.46873 | -0.48844 | 88 ft | 3 kts | 70° |
| 2026-05-06 08:40 | 51.46873 | -0.48799 | 85 ft | 9 kts | 88° |
| 2026-05-06 08:40 | 51.46810 | -0.48749 | 84 ft | 11 kts | 181° |
| 2026-05-06 08:40 | 51.46719 | -0.48748 | 85 ft | 16 kts | 180° |
| 2026-05-06 08:40 | 51.46609 | -0.48761 | 88 ft | 18 kts | 193° |
| 2026-05-06 08:41 | 51.46493 | -0.48729 | 86 ft | 19 kts | 126° |
| 2026-05-06 08:41 | 51.46479 | -0.48532 | 86 ft | 21 kts | 90° |
| 2026-05-06 08:41 | 51.46481 | -0.48067 | 84 ft | 76 kts | 89° |
| 2026-05-06 08:41 | 51.46484 | -0.46833 | 89 ft | 136 kts | 90° |
| 2026-05-06 08:42 | 51.46474 | -0.45012 | 488 ft | 149 kts | 87° |
| 2026-05-06 08:42 | 51.46456 | -0.43418 | 1191 ft | 146 kts | 86° |
| 2026-05-06 08:42 | 51.46470 | -0.41798 | 1821 ft | 147 kts | 76° |
| 2026-05-06 08:42 | 51.46904 | -0.40241 | 2237 ft | 158 kts | 52° |
| 2026-05-06 08:43 | 51.47626 | -0.38740 | 2699 ft | 175 kts | 48° |
| 2026-05-06 08:43 | 51.48444 | -0.37179 | 3131 ft | 197 kts | 47° |
| 2026-05-06 08:43 | 51.49407 | -0.35374 | 3694 ft | 221 kts | 46° |
| 2026-05-06 08:43 | 51.50421 | -0.33466 | 4369 ft | 242 kts | 46° |
| 2026-05-06 08:44 | 51.51527 | -0.31300 | 5266 ft | 253 kts | 44° |
| 2026-05-06 08:44 | 51.52959 | -0.29699 | 6256 ft | 252 kts | 17° |
| 2026-05-06 08:44 | 51.54714 | -0.29420 | 7222 ft | 255 kts | 350° |
| 2026-05-06 08:44 | 51.56442 | -0.30170 | 8139 ft | 263 kts | 340° |
| 2026-05-06 08:45 | 51.58183 | -0.31204 | 9118 ft | 269 kts | 339° |
| 2026-05-06 08:45 | 51.59967 | -0.32240 | 10100 ft | 275 kts | 341° |
| 2026-05-06 08:45 | 51.61837 | -0.33232 | 10704 ft | 294 kts | 342° |
| 2026-05-06 08:45 | 51.63863 | -0.34225 | 11105 ft | 318 kts | 343° |
| 2026-05-06 08:46 | 51.66050 | -0.35248 | 11739 ft | 331 kts | 343° |
| 2026-05-06 08:46 | 51.68158 | -0.36217 | 12586 ft | 336 kts | 343° |
| 2026-05-06 08:46 | 51.70461 | -0.37272 | 13335 ft | 344 kts | 343° |
| 2026-05-06 08:46 | 51.72805 | -0.38348 | 13590 ft | 347 kts | 343° |
| 2026-05-06 08:47 | 51.75137 | -0.39422 | 14409 ft | 348 kts | 343° |
| 2026-05-06 08:47 | 51.77404 | -0.40749 | 15232 ft | 350 kts | 334° |
| 2026-05-06 08:47 | 51.79634 | -0.42493 | 16034 ft | 354 kts | 332° |
| 2026-05-06 08:47 | 51.81849 | -0.44267 | 16830 ft | 358 kts | 332° |
| 2026-05-06 08:48 | 51.84097 | -0.46071 | 17604 ft | 362 kts | 332° |
| 2026-05-06 08:48 | 51.86372 | -0.47891 | 18359 ft | 367 kts | 332° |
| 2026-05-06 08:48 | 51.88670 | -0.49724 | 19015 ft | 371 kts | 332° |
| 2026-05-06 08:48 | 51.90997 | -0.51578 | 19685 ft | 374 kts | 332° |
| 2026-05-06 08:49 | 51.93350 | -0.53455 | 20353 ft | 378 kts | 332° |
| 2026-05-06 08:49 | 51.95721 | -0.55349 | 21022 ft | 383 kts | 332° |
| 2026-05-06 08:49 | 51.98119 | -0.57266 | 21668 ft | 387 kts | 332° |
| 2026-05-06 08:49 | 52.00548 | -0.59210 | 22309 ft | 391 kts | 332° |
| 2026-05-06 08:50 | 52.03001 | -0.61176 | 22943 ft | 395 kts | 332° |
| 2026-05-06 08:50 | 52.05474 | -0.63161 | 23568 ft | 399 kts | 332° |
| 2026-05-06 08:50 | 52.07976 | -0.65173 | 24106 ft | 402 kts | 332° |
| 2026-05-06 08:50 | 52.10491 | -0.67196 | 24660 ft | 405 kts | 332° |
| 2026-05-06 08:51 | 52.13026 | -0.69238 | 25185 ft | 408 kts | 332° |
| 2026-05-06 08:51 | 52.15584 | -0.71302 | 25695 ft | 411 kts | 332° |
| 2026-05-06 08:51 | 52.18150 | -0.73374 | 26195 ft | 414 kts | 332° |
| 2026-05-06 08:51 | 52.20743 | -0.75472 | 26684 ft | 417 kts | 332° |
| 2026-05-06 08:52 | 52.23358 | -0.77590 | 27159 ft | 420 kts | 332° |
| 2026-05-06 08:52 | 52.25982 | -0.79718 | 27629 ft | 423 kts | 332° |
| 2026-05-06 08:52 | 52.28633 | -0.81871 | 28084 ft | 426 kts | 332° |
| 2026-05-06 08:52 | 52.31194 | -0.83953 | 28511 ft | 429 kts | 332° |
| 2026-05-06 08:53 | 52.33820 | -0.86091 | 28929 ft | 432 kts | 332° |
| 2026-05-06 08:53 | 52.36512 | -0.88286 | 29353 ft | 434 kts | 332° |
| 2026-05-06 08:53 | 52.39228 | -0.90504 | 29773 ft | 436 kts | 332° |
| 2026-05-06 08:53 | 52.41951 | -0.92730 | 30159 ft | 439 kts | 332° |
| 2026-05-06 08:54 | 52.44694 | -0.94976 | 30507 ft | 441 kts | 332° |
| 2026-05-06 08:54 | 52.47474 | -0.97254 | 30863 ft | 444 kts | 332° |
| 2026-05-06 08:54 | 52.50251 | -0.99534 | 31238 ft | 446 kts | 332° |
| 2026-05-06 08:54 | 52.53022 | -1.01812 | 31666 ft | 446 kts | 332° |
| 2026-05-06 08:55 | 52.54895 | -1.03353 | 31832 ft | 445 kts | 332° |
| 2026-05-06 08:55 | 52.58557 | -1.06371 | 31961 ft | 443 kts | 331° |
| 2026-05-06 08:55 | 52.60415 | -1.07905 | 32017 ft | 443 kts | 331° |
| 2026-05-06 08:56 | 52.65955 | -1.12486 | 32023 ft | 442 kts | 331° |
| 2026-05-06 08:56 | 52.71367 | -1.16976 | 32043 ft | 443 kts | 331° |
| 2026-05-06 08:57 | 52.76866 | -1.21551 | 32047 ft | 442 kts | 331° |
| 2026-05-06 08:57 | 52.82367 | -1.26139 | 32049 ft | 442 kts | 331° |
| 2026-05-06 08:58 | 52.87850 | -1.30726 | 32052 ft | 442 kts | 331° |
| 2026-05-06 08:58 | 52.93348 | -1.35338 | 32051 ft | 442 kts | 330° |
| 2026-05-06 08:59 | 52.98836 | -1.39955 | 32052 ft | 442 kts | 330° |
| 2026-05-06 08:59 | 53.04320 | -1.44582 | 32051 ft | 443 kts | 330° |
| 2026-05-06 09:00 | 53.09748 | -1.49175 | 32049 ft | 442 kts | 330° |
| 2026-05-06 09:00 | 53.15231 | -1.53828 | 32049 ft | 442 kts | 330° |
| 2026-05-06 09:01 | 53.20713 | -1.58493 | 32052 ft | 442 kts | 330° |
| 2026-05-06 09:01 | 53.26235 | -1.63206 | 32055 ft | 442 kts | 330° |
| 2026-05-06 09:02 | 53.31700 | -1.67884 | 32052 ft | 442 kts | 330° |
| 2026-05-06 09:02 | 53.37158 | -1.72569 | 32055 ft | 441 kts | 330° |
| 2026-05-06 09:03 | 53.42626 | -1.77278 | 32060 ft | 442 kts | 330° |
| 2026-05-06 09:03 | 53.48090 | -1.81997 | 32064 ft | 442 kts | 329° |
| 2026-05-06 09:04 | 53.53591 | -1.86760 | 32064 ft | 442 kts | 329° |
| 2026-05-06 09:04 | 53.59057 | -1.91508 | 32066 ft | 442 kts | 329° |
| 2026-05-06 09:05 | 53.64523 | -1.96270 | 32065 ft | 442 kts | 329° |
| 2026-05-06 09:05 | 53.69958 | -2.01017 | 32062 ft | 443 kts | 329° |
| 2026-05-06 09:06 | 53.75390 | -2.05777 | 32066 ft | 442 kts | 329° |
| 2026-05-06 09:06 | 53.80885 | -2.10605 | 32065 ft | 442 kts | 329° |
| 2026-05-06 09:07 | 53.86314 | -2.15391 | 32073 ft | 442 kts | 329° |
| 2026-05-06 09:07 | 53.91767 | -2.20211 | 32076 ft | 442 kts | 329° |
| 2026-05-06 09:08 | 53.97216 | -2.25039 | 32082 ft | 442 kts | 329° |
| 2026-05-06 09:08 | 54.02662 | -2.29881 | 32068 ft | 442 kts | 328° |
| 2026-05-06 09:09 | 54.08044 | -2.34908 | 32079 ft | 441 kts | 327° |
| 2026-05-06 09:09 | 54.13448 | -2.40018 | 32073 ft | 441 kts | 327° |
| 2026-05-06 09:10 | 54.18763 | -2.45027 | 32074 ft | 441 kts | 328° |
| 2026-05-06 09:10 | 54.24136 | -2.50095 | 32076 ft | 441 kts | 327° |
| 2026-05-06 09:11 | 54.29498 | -2.55167 | 32084 ft | 441 kts | 327° |
| 2026-05-06 09:11 | 54.34859 | -2.60254 | 32082 ft | 440 kts | 327° |
| 2026-05-06 09:12 | 54.40213 | -2.65349 | 31969 ft | 440 kts | 327° |
| 2026-05-06 09:12 | 54.42880 | -2.67893 | 31710 ft | 439 kts | 327° |
| 2026-05-06 09:12 | 54.45555 | -2.70448 | 31452 ft | 439 kts | 327° |
| 2026-05-06 09:12 | 54.48222 | -2.73001 | 31213 ft | 439 kts | 327° |
| 2026-05-06 09:13 | 54.50935 | -2.75601 | 30960 ft | 440 kts | 327° |
| 2026-05-06 09:13 | 54.53571 | -2.78130 | 30708 ft | 439 kts | 327° |
| 2026-05-06 09:13 | 54.56201 | -2.80657 | 30466 ft | 437 kts | 327° |
| 2026-05-06 09:13 | 54.58848 | -2.83203 | 30221 ft | 435 kts | 327° |
| 2026-05-06 09:14 | 54.61519 | -2.85778 | 29938 ft | 433 kts | 327° |
| 2026-05-06 09:14 | 54.64135 | -2.88304 | 29644 ft | 431 kts | 327° |
| 2026-05-06 09:14 | 54.66747 | -2.90830 | 29362 ft | 429 kts | 327° |
| 2026-05-06 09:14 | 54.69287 | -2.93290 | 29057 ft | 427 kts | 327° |
| 2026-05-06 09:15 | 54.71883 | -2.95808 | 28469 ft | 426 kts | 327° |
| 2026-05-06 09:15 | 54.74430 | -2.98281 | 27891 ft | 422 kts | 327° |
| 2026-05-06 09:15 | 54.77033 | -3.00813 | 27301 ft | 416 kts | 327° |
| 2026-05-06 09:15 | 54.79542 | -3.03256 | 26732 ft | 411 kts | 327° |
| 2026-05-06 09:16 | 54.82010 | -3.05664 | 26346 ft | 402 kts | 327° |
| 2026-05-06 09:16 | 54.84456 | -3.08055 | 26175 ft | 407 kts | 327° |
| 2026-05-06 09:16 | 54.86917 | -3.10468 | 25987 ft | 406 kts | 327° |
| 2026-05-06 09:16 | 54.89383 | -3.12888 | 25391 ft | 408 kts | 327° |
| 2026-05-06 09:17 | 54.91906 | -3.15368 | 24495 ft | 414 kts | 328° |
| 2026-05-06 09:17 | 54.94367 | -3.17789 | 23965 ft | 409 kts | 328° |
| 2026-05-06 09:17 | 54.96838 | -3.20217 | 23694 ft | 395 kts | 328° |
| 2026-05-06 09:17 | 54.99201 | -3.22543 | 23354 ft | 389 kts | 328° |
| 2026-05-06 09:18 | 55.01556 | -3.24869 | 22971 ft | 389 kts | 328° |
| 2026-05-06 09:18 | 55.03913 | -3.27201 | 22593 ft | 388 kts | 328° |
| 2026-05-06 09:18 | 55.06251 | -3.29515 | 22217 ft | 385 kts | 328° |
| 2026-05-06 09:18 | 55.08569 | -3.31813 | 21841 ft | 382 kts | 328° |
| 2026-05-06 09:19 | 55.10878 | -3.34103 | 21471 ft | 380 kts | 328° |
| 2026-05-06 09:19 | 55.13171 | -3.36381 | 21101 ft | 378 kts | 327° |
| 2026-05-06 09:19 | 55.15455 | -3.38655 | 20737 ft | 376 kts | 327° |
| 2026-05-06 09:19 | 55.17720 | -3.40912 | 20376 ft | 374 kts | 327° |
| 2026-05-06 09:20 | 55.19974 | -3.43159 | 20164 ft | 370 kts | 327° |
| 2026-05-06 09:20 | 55.21482 | -3.44666 | 20050 ft | 370 kts | 327° |
| 2026-05-06 09:20 | 55.23705 | -3.46888 | 19621 ft | 371 kts | 327° |
| 2026-05-06 09:20 | 55.25924 | -3.49111 | 18853 ft | 376 kts | 327° |
| 2026-05-06 09:21 | 55.28219 | -3.51414 | 17870 ft | 383 kts | 327° |
| 2026-05-06 09:21 | 55.30534 | -3.53736 | 17212 ft | 375 kts | 328° |
| 2026-05-06 09:21 | 55.32755 | -3.55963 | 16663 ft | 368 kts | 328° |
| 2026-05-06 09:21 | 55.34956 | -3.58175 | 16096 ft | 363 kts | 328° |
| 2026-05-06 09:22 | 55.37159 | -3.60393 | 15543 ft | 358 kts | 328° |
| 2026-05-06 09:22 | 55.39310 | -3.62562 | 14985 ft | 354 kts | 328° |
| 2026-05-06 09:22 | 55.41429 | -3.64704 | 14444 ft | 350 kts | 328° |
| 2026-05-06 09:22 | 55.43501 | -3.66797 | 14242 ft | 336 kts | 328° |
| 2026-05-06 09:23 | 55.45483 | -3.68799 | 14060 ft | 317 kts | 328° |
| 2026-05-06 09:23 | 55.47344 | -3.70680 | 13890 ft | 297 kts | 327° |
| 2026-05-06 09:23 | 55.49098 | -3.72458 | 13631 ft | 281 kts | 327° |
| 2026-05-06 09:23 | 55.50751 | -3.74139 | 13111 ft | 276 kts | 328° |
| 2026-05-06 09:24 | 55.52432 | -3.75854 | 12489 ft | 275 kts | 328° |
| 2026-05-06 09:24 | 55.54076 | -3.77533 | 11903 ft | 273 kts | 328° |
| 2026-05-06 09:24 | 55.55740 | -3.79234 | 11322 ft | 271 kts | 328° |
| 2026-05-06 09:24 | 55.57364 | -3.80895 | 10771 ft | 269 kts | 329° |
| 2026-05-06 09:25 | 55.58971 | -3.82538 | 10245 ft | 266 kts | 329° |
| 2026-05-06 09:25 | 55.60571 | -3.84175 | 9688 ft | 264 kts | 329° |
| 2026-05-06 09:25 | 55.62155 | -3.85797 | 9114 ft | 262 kts | 329° |
| 2026-05-06 09:25 | 55.63717 | -3.87395 | 8674 ft | 260 kts | 329° |
| 2026-05-06 09:26 | 55.65287 | -3.89002 | 8277 ft | 261 kts | 329° |
| 2026-05-06 09:26 | 55.66853 | -3.90608 | 7859 ft | 260 kts | 329° |
| 2026-05-06 09:26 | 55.68356 | -3.92152 | 7478 ft | 260 kts | 329° |
| 2026-05-06 09:26 | 55.69709 | -3.94214 | 7106 ft | 258 kts | 304° |
| 2026-05-06 09:27 | 55.70350 | -3.97179 | 6747 ft | 256 kts | 278° |
| 2026-05-06 09:27 | 55.70542 | -4.00305 | 6539 ft | 259 kts | 275° |
| 2026-05-06 09:27 | 55.70702 | -4.03533 | 6297 ft | 257 kts | 275° |
| 2026-05-06 09:27 | 55.70869 | -4.06720 | 6064 ft | 258 kts | 275° |
| 2026-05-06 09:28 | 55.71051 | -4.09878 | 5842 ft | 257 kts | 275° |
| 2026-05-06 09:28 | 55.71240 | -4.12978 | 5615 ft | 257 kts | 275° |
| 2026-05-06 09:28 | 55.71442 | -4.16183 | 5383 ft | 257 kts | 275° |
| 2026-05-06 09:28 | 55.71640 | -4.19327 | 5154 ft | 257 kts | 275° |
| 2026-05-06 09:29 | 55.71833 | -4.22368 | 4930 ft | 256 kts | 275° |
| 2026-05-06 09:29 | 55.72032 | -4.25554 | 4702 ft | 257 kts | 275° |
| 2026-05-06 09:29 | 55.72228 | -4.28735 | 4471 ft | 255 kts | 275° |
| 2026-05-06 09:29 | 55.72421 | -4.31865 | 4303 ft | 253 kts | 275° |
| 2026-05-06 09:30 | 55.72607 | -4.34899 | 4221 ft | 243 kts | 275° |
| 2026-05-06 09:30 | 55.72786 | -4.37805 | 4125 ft | 232 kts | 275° |
| 2026-05-06 09:30 | 55.72955 | -4.40589 | 4026 ft | 220 kts | 274° |
| 2026-05-06 09:30 | 55.73116 | -4.43240 | 3838 ft | 215 kts | 274° |
| 2026-05-06 09:31 | 55.73277 | -4.45900 | 3555 ft | 214 kts | 274° |
| 2026-05-06 09:31 | 55.73434 | -4.48524 | 3285 ft | 214 kts | 274° |
| 2026-05-06 09:31 | 55.73591 | -4.51132 | 2933 ft | 209 kts | 274° |
| 2026-05-06 09:31 | 55.73727 | -4.53478 | 2640 ft | 198 kts | 274° |
| 2026-05-06 09:32 | 55.73869 | -4.55853 | 2492 ft | 178 kts | 274° |
| 2026-05-06 09:32 | 55.73997 | -4.57968 | 2396 ft | 171 kts | 274° |
| 2026-05-06 09:32 | 55.74234 | -4.60036 | 2374 ft | 171 kts | 298° |
| 2026-05-06 09:32 | 55.75101 | -4.61476 | 2399 ft | 173 kts | 336° |
| 2026-05-06 09:33 | 55.76242 | -4.61845 | 2393 ft | 168 kts | 10° |
| 2026-05-06 09:33 | 55.77328 | -4.61162 | 2393 ft | 164 kts | 35° |
| 2026-05-06 09:33 | 55.78225 | -4.59944 | 2388 ft | 159 kts | 46° |
| 2026-05-06 09:33 | 55.79030 | -4.58532 | 2243 ft | 163 kts | 49° |
| 2026-05-06 09:34 | 55.79798 | -4.57102 | 2010 ft | 159 kts | 50° |
| 2026-05-06 09:34 | 55.80516 | -4.55770 | 1798 ft | 153 kts | 49° |
| 2026-05-06 09:34 | 55.81223 | -4.54456 | 1604 ft | 140 kts | 50° |
| 2026-05-06 09:34 | 55.81861 | -4.53267 | 1401 ft | 130 kts | 50° |
| 2026-05-06 09:35 | 55.82472 | -4.52125 | 1207 ft | 121 kts | 50° |
| 2026-05-06 09:35 | 55.83058 | -4.51005 | 1026 ft | 122 kts | 50° |
| 2026-05-06 09:35 | 55.83649 | -4.49898 | 850 ft | 123 kts | 49° |
| 2026-05-06 09:35 | 55.84255 | -4.48794 | 691 ft | 123 kts | 49° |
| 2026-05-06 09:36 | 55.84666 | -4.48043 | 557 ft | 123 kts | 49° |
| 2026-05-06 09:36 | 55.85268 | -4.46925 | 384 ft | 124 kts | 50° |
| 2026-05-06 09:36 | 55.85874 | -4.45795 | 202 ft | 120 kts | 50° |
| 2026-05-06 09:36 | 55.86461 | -4.44700 | 51 ft | 123 kts | 50° |
| 2026-05-06 09:37 | 55.87006 | -4.43683 | 29 ft | 91 kts | 45° |
| 2026-05-06 09:37 | 55.87307 | -4.43117 | 28 ft | 43 kts | 43° |
| 2026-05-06 09:37 | 55.87510 | -4.42743 | 28 ft | 39 kts | 47° |
| 2026-05-06 09:37 | 55.87694 | -4.42402 | 28 ft | 32 kts | 48° |
| 2026-05-06 09:38 | 55.87736 | -4.42201 | 28 ft | 18 kts | 125° |
| 2026-05-06 09:38 | 55.87611 | -4.42157 | 28 ft | 15 kts | 224° |
| 2026-05-06 09:38 | 55.87527 | -4.42333 | 28 ft | 23 kts | 226° |
| 2026-05-06 09:38 | 55.87407 | -4.42556 | 28 ft | 26 kts | 226° |
| 2026-05-06 09:39 | 55.87249 | -4.42681 | 28 ft | 22 kts | 203° |
| 2026-05-06 09:39 | 55.87108 | -4.42778 | 28 ft | 22 kts | 199° |
| 2026-05-06 09:39 | 55.86970 | -4.42875 | 28 ft | 21 kts | 203° |
| 2026-05-06 09:39 | 55.86856 | -4.42996 | 28 ft | 17 kts | 236° |
| 2026-05-06 09:40 | 55.86816 | -4.43223 | 28 ft | 21 kts | 254° |
| 2026-05-06 09:40 | 55.86774 | -4.43484 | 28 ft | 20 kts | 252° |
| 2026-05-06 09:40 | 55.86611 | -4.43558 | 28 ft | 9 kts | 155° |
| 2026-05-06 09:41 | 55.86612 | -4.43467 | 28 ft | 6 kts | 71° |
| 2026-05-06 09:41 | 55.86618 | -4.43427 | 28 ft | 2 kts | 74° |
| 2026-05-06 09:41 | 55.86618 | -4.43424 | 28 ft | 0 kts | 74° |